sensor_id;sensor_type;location;lat;lon;timestamp;P1;durP1;ratioP1;P2;durP2;ratioP2
16113;SDS011;8161;-33.910;151.156;2024-03-02T00:01:39;25.52;;;6.20;;
16113;SDS011;8161;-33.910;151.156;2024-03-02T00:04:06;23.93;;;5.90;;
16113;SDS011;8161;-33.910;151.156;2024-03-02T00:06:34;25.40;;;5.90;;
16113;SDS011;8161;-33.910;151.156;2024-03-02T00:09:03;27.50;;;5.40;;
16113;SDS011;8161;-33.910;151.156;2024-03-02T00:11:30;28.10;;;5.88;;
16113;SDS011;8161;-33.910;151.156;2024-03-02T00:14:02;21.65;;;5.20;;
16113;SDS011;8161;-33.910;151.156;2024-03-02T00:16:30;30.10;;;6.35;;
16113;SDS011;8161;-33.910;151.156;2024-03-02T00:19:01;26.45;;;5.65;;
16113;SDS011;8161;-33.910;151.156;2024-03-02T00:21:31;25.55;;;5.13;;
16113;SDS011;8161;-33.910;151.156;2024-03-02T00:23:59;25.92;;;5.95;;
16113;SDS011;8161;-33.910;151.156;2024-03-02T00:26:29;26.73;;;5.63;;
16113;SDS011;8161;-33.910;151.156;2024-03-02T00:28:56;24.05;;;4.85;;
16113;SDS011;8161;-33.910;151.156;2024-03-02T00:31:23;24.17;;;4.93;;
16113;SDS011;8161;-33.910;151.156;2024-03-02T00:33:51;21.27;;;4.88;;
16113;SDS011;8161;-33.910;151.156;2024-03-02T00:36:22;20.05;;;4.93;;
16113;SDS011;8161;-33.910;151.156;2024-03-02T00:38:53;19.60;;;4.90;;
16113;SDS011;8161;-33.910;151.156;2024-03-02T00:41:26;26.07;;;4.90;;
16113;SDS011;8161;-33.910;151.156;2024-03-02T00:43:59;25.42;;;4.97;;
16113;SDS011;8161;-33.910;151.156;2024-03-02T00:46:41;19.87;;;4.47;;
16113;SDS011;8161;-33.910;151.156;2024-03-02T00:51:39;23.10;;;4.53;;
16113;SDS011;8161;-33.910;151.156;2024-03-02T00:54:07;18.67;;;4.20;;
16113;SDS011;8161;-33.910;151.156;2024-03-02T00:56:35;21.30;;;4.63;;
16113;SDS011;8161;-33.910;151.156;2024-03-02T00:59:02;20.17;;;4.30;;
16113;SDS011;8161;-33.910;151.156;2024-03-02T01:01:29;16.90;;;4.25;;
16113;SDS011;8161;-33.910;151.156;2024-03-02T01:03:57;16.15;;;3.63;;
16113;SDS011;8161;-33.910;151.156;2024-03-02T01:06:24;15.47;;;3.43;;
16113;SDS011;8161;-33.910;151.156;2024-03-02T01:08:51;19.50;;;3.85;;
16113;SDS011;8161;-33.910;151.156;2024-03-02T01:11:19;17.40;;;3.80;;
16113;SDS011;8161;-33.910;151.156;2024-03-02T01:13:49;16.25;;;3.72;;
16113;SDS011;8161;-33.910;151.156;2024-03-02T01:16:17;17.40;;;3.83;;
16113;SDS011;8161;-33.910;151.156;2024-03-02T01:18:45;22.25;;;4.97;;
16113;SDS011;8161;-33.910;151.156;2024-03-02T01:21:12;21.93;;;4.43;;
16113;SDS011;8161;-33.910;151.156;2024-03-02T01:23:39;19.92;;;4.93;;
16113;SDS011;8161;-33.910;151.156;2024-03-02T01:26:06;18.83;;;4.47;;
16113;SDS011;8161;-33.910;151.156;2024-03-02T01:28:33;22.30;;;4.72;;
16113;SDS011;8161;-33.910;151.156;2024-03-02T01:31:01;20.55;;;5.30;;
16113;SDS011;8161;-33.910;151.156;2024-03-02T01:33:28;22.60;;;4.75;;
16113;SDS011;8161;-33.910;151.156;2024-03-02T01:35:55;23.05;;;5.10;;
16113;SDS011;8161;-33.910;151.156;2024-03-02T01:38:22;19.40;;;5.25;;
16113;SDS011;8161;-33.910;151.156;2024-03-02T01:40:49;19.55;;;4.00;;
16113;SDS011;8161;-33.910;151.156;2024-03-02T01:43:17;18.35;;;4.70;;
16113;SDS011;8161;-33.910;151.156;2024-03-02T01:45:44;21.42;;;4.78;;
16113;SDS011;8161;-33.910;151.156;2024-03-02T01:48:11;20.20;;;4.18;;
16113;SDS011;8161;-33.910;151.156;2024-03-02T01:50:39;20.48;;;4.43;;
16113;SDS011;8161;-33.910;151.156;2024-03-02T01:53:06;20.48;;;4.53;;
16113;SDS011;8161;-33.910;151.156;2024-03-02T01:55:35;17.85;;;4.05;;
16113;SDS011;8161;-33.910;151.156;2024-03-02T01:58:03;19.38;;;4.50;;
16113;SDS011;8161;-33.910;151.156;2024-03-02T02:00:30;18.60;;;4.43;;
16113;SDS011;8161;-33.910;151.156;2024-03-02T02:02:57;19.52;;;4.38;;
16113;SDS011;8161;-33.910;151.156;2024-03-02T02:05:25;18.48;;;4.15;;
16113;SDS011;8161;-33.910;151.156;2024-03-02T02:07:55;17.27;;;4.13;;
16113;SDS011;8161;-33.910;151.156;2024-03-02T02:10:24;21.83;;;4.68;;
16113;SDS011;8161;-33.910;151.156;2024-03-02T02:12:51;22.58;;;4.55;;
16113;SDS011;8161;-33.910;151.156;2024-03-02T02:15:28;22.57;;;5.67;;
16113;SDS011;8161;-33.910;151.156;2024-03-02T02:17:56;17.00;;;4.50;;
16113;SDS011;8161;-33.910;151.156;2024-03-02T02:20:24;24.88;;;4.65;;
16113;SDS011;8161;-33.910;151.156;2024-03-02T02:22:55;18.63;;;4.82;;
16113;SDS011;8161;-33.910;151.156;2024-03-02T02:25:22;18.88;;;4.55;;
16113;SDS011;8161;-33.910;151.156;2024-03-02T02:27:50;19.10;;;4.55;;
16113;SDS011;8161;-33.910;151.156;2024-03-02T02:30:35;17.43;;;4.50;;
16113;SDS011;8161;-33.910;151.156;2024-03-02T02:33:02;17.90;;;5.03;;
16113;SDS011;8161;-33.910;151.156;2024-03-02T02:35:30;17.48;;;4.90;;
16113;SDS011;8161;-33.910;151.156;2024-03-02T02:37:57;19.77;;;5.05;;
16113;SDS011;8161;-33.910;151.156;2024-03-02T02:40:25;21.80;;;5.20;;
16113;SDS011;8161;-33.910;151.156;2024-03-02T02:42:56;21.35;;;5.13;;
16113;SDS011;8161;-33.910;151.156;2024-03-02T02:45:27;19.88;;;4.90;;
16113;SDS011;8161;-33.910;151.156;2024-03-02T02:47:54;28.90;;;6.03;;
16113;SDS011;8161;-33.910;151.156;2024-03-02T02:50:21;17.02;;;5.10;;
16113;SDS011;8161;-33.910;151.156;2024-03-02T02:52:48;22.42;;;5.25;;
16113;SDS011;8161;-33.910;151.156;2024-03-02T02:55:16;17.70;;;5.15;;
16113;SDS011;8161;-33.910;151.156;2024-03-02T02:57:43;25.60;;;6.83;;
16113;SDS011;8161;-33.910;151.156;2024-03-02T03:00:15;20.42;;;5.65;;
16113;SDS011;8161;-33.910;151.156;2024-03-02T03:02:45;19.50;;;5.97;;
16113;SDS011;8161;-33.910;151.156;2024-03-02T03:05:14;18.67;;;5.43;;
16113;SDS011;8161;-33.910;151.156;2024-03-02T03:07:42;19.58;;;6.72;;
16113;SDS011;8161;-33.910;151.156;2024-03-02T03:10:10;19.85;;;6.15;;
16113;SDS011;8161;-33.910;151.156;2024-03-02T03:12:37;18.50;;;5.90;;
16113;SDS011;8161;-33.910;151.156;2024-03-02T03:15:06;17.50;;;5.30;;
16113;SDS011;8161;-33.910;151.156;2024-03-02T03:17:35;23.38;;;6.05;;
16113;SDS011;8161;-33.910;151.156;2024-03-02T03:20:03;21.73;;;5.70;;
16113;SDS011;8161;-33.910;151.156;2024-03-02T03:22:31;14.30;;;5.03;;
16113;SDS011;8161;-33.910;151.156;2024-03-02T03:24:58;14.75;;;5.45;;
16113;SDS011;8161;-33.910;151.156;2024-03-02T03:27:25;14.52;;;4.95;;
16113;SDS011;8161;-33.910;151.156;2024-03-02T03:29:53;18.75;;;5.65;;
16113;SDS011;8161;-33.910;151.156;2024-03-02T03:32:20;13.98;;;4.70;;
16113;SDS011;8161;-33.910;151.156;2024-03-02T03:34:48;17.15;;;5.15;;
16113;SDS011;8161;-33.910;151.156;2024-03-02T03:37:15;19.73;;;4.93;;
16113;SDS011;8161;-33.910;151.156;2024-03-02T03:39:42;17.00;;;5.05;;
16113;SDS011;8161;-33.910;151.156;2024-03-02T03:42:10;18.55;;;5.30;;
16113;SDS011;8161;-33.910;151.156;2024-03-02T03:44:37;16.83;;;5.17;;
16113;SDS011;8161;-33.910;151.156;2024-03-02T03:47:06;14.87;;;4.67;;
16113;SDS011;8161;-33.910;151.156;2024-03-02T03:49:33;13.02;;;4.32;;
16113;SDS011;8161;-33.910;151.156;2024-03-02T03:52:00;17.40;;;4.60;;
16113;SDS011;8161;-33.910;151.156;2024-03-02T03:54:27;14.23;;;4.60;;
16113;SDS011;8161;-33.910;151.156;2024-03-02T03:56:55;16.75;;;4.72;;
16113;SDS011;8161;-33.910;151.156;2024-03-02T03:59:22;15.57;;;4.32;;
16113;SDS011;8161;-33.910;151.156;2024-03-02T04:01:49;16.38;;;4.65;;
16113;SDS011;8161;-33.910;151.156;2024-03-02T04:04:16;17.27;;;4.05;;
16113;SDS011;8161;-33.910;151.156;2024-03-02T04:06:44;18.52;;;4.35;;
16113;SDS011;8161;-33.910;151.156;2024-03-02T04:09:11;15.32;;;4.45;;
16113;SDS011;8161;-33.910;151.156;2024-03-02T04:11:38;16.75;;;4.20;;
16113;SDS011;8161;-33.910;151.156;2024-03-02T04:14:06;22.83;;;4.73;;
16113;SDS011;8161;-33.910;151.156;2024-03-02T04:16:33;15.52;;;4.38;;
16113;SDS011;8161;-33.910;151.156;2024-03-02T04:19:01;16.85;;;4.22;;
16113;SDS011;8161;-33.910;151.156;2024-03-02T04:21:32;14.48;;;4.07;;
16113;SDS011;8161;-33.910;151.156;2024-03-02T04:23:59;19.80;;;4.70;;
16113;SDS011;8161;-33.910;151.156;2024-03-02T04:26:26;24.73;;;4.33;;
16113;SDS011;8161;-33.910;151.156;2024-03-02T04:28:53;14.10;;;4.03;;
16113;SDS011;8161;-33.910;151.156;2024-03-02T04:31:21;19.08;;;4.35;;
16113;SDS011;8161;-33.910;151.156;2024-03-02T04:33:48;14.80;;;4.10;;
16113;SDS011;8161;-33.910;151.156;2024-03-02T04:36:15;14.48;;;4.28;;
16113;SDS011;8161;-33.910;151.156;2024-03-02T04:38:43;14.25;;;3.80;;
16113;SDS011;8161;-33.910;151.156;2024-03-02T04:41:10;16.80;;;3.75;;
16113;SDS011;8161;-33.910;151.156;2024-03-02T04:43:37;14.90;;;3.87;;
16113;SDS011;8161;-33.910;151.156;2024-03-02T04:46:04;14.25;;;3.50;;
16113;SDS011;8161;-33.910;151.156;2024-03-02T04:48:33;15.75;;;3.95;;
16113;SDS011;8161;-33.910;151.156;2024-03-02T04:51:00;15.27;;;3.50;;
16113;SDS011;8161;-33.910;151.156;2024-03-02T04:53:28;15.00;;;3.40;;
16113;SDS011;8161;-33.910;151.156;2024-03-02T04:55:55;22.08;;;4.45;;
16113;SDS011;8161;-33.910;151.156;2024-03-02T04:58:35;13.18;;;3.72;;
16113;SDS011;8161;-33.910;151.156;2024-03-02T05:01:02;11.95;;;3.10;;
16113;SDS011;8161;-33.910;151.156;2024-03-02T05:03:29;16.27;;;3.70;;
16113;SDS011;8161;-33.910;151.156;2024-03-02T05:05:59;15.52;;;3.20;;
16113;SDS011;8161;-33.910;151.156;2024-03-02T05:08:26;12.95;;;3.45;;
16113;SDS011;8161;-33.910;151.156;2024-03-02T05:10:54;16.63;;;4.60;;
16113;SDS011;8161;-33.910;151.156;2024-03-02T05:13:41;14.97;;;3.67;;
16113;SDS011;8161;-33.910;151.156;2024-03-02T05:16:08;17.80;;;4.20;;
16113;SDS011;8161;-33.910;151.156;2024-03-02T05:18:36;11.48;;;2.92;;
16113;SDS011;8161;-33.910;151.156;2024-03-02T05:21:05;17.00;;;3.78;;
16113;SDS011;8161;-33.910;151.156;2024-03-02T05:23:32;14.88;;;3.65;;
16113;SDS011;8161;-33.910;151.156;2024-03-02T05:25:59;13.02;;;3.53;;
16113;SDS011;8161;-33.910;151.156;2024-03-02T05:28:26;13.30;;;3.60;;
16113;SDS011;8161;-33.910;151.156;2024-03-02T05:30:55;11.95;;;3.35;;
16113;SDS011;8161;-33.910;151.156;2024-03-02T05:33:23;14.98;;;3.50;;
16113;SDS011;8161;-33.910;151.156;2024-03-02T05:35:50;18.13;;;3.58;;
16113;SDS011;8161;-33.910;151.156;2024-03-02T05:38:17;16.25;;;3.15;;
16113;SDS011;8161;-33.910;151.156;2024-03-02T05:40:54;13.00;;;3.15;;
16113;SDS011;8161;-33.910;151.156;2024-03-02T05:43:27;14.55;;;3.38;;
16113;SDS011;8161;-33.910;151.156;2024-03-02T05:45:54;15.55;;;3.88;;
16113;SDS011;8161;-33.910;151.156;2024-03-02T05:48:21;17.37;;;3.90;;
16113;SDS011;8161;-33.910;151.156;2024-03-02T05:50:48;16.45;;;3.47;;
16113;SDS011;8161;-33.910;151.156;2024-03-02T05:53:15;15.40;;;3.47;;
16113;SDS011;8161;-33.910;151.156;2024-03-02T05:55:46;15.52;;;3.17;;
16113;SDS011;8161;-33.910;151.156;2024-03-02T05:58:18;14.77;;;3.40;;
16113;SDS011;8161;-33.910;151.156;2024-03-02T06:00:59;16.20;;;3.83;;
16113;SDS011;8161;-33.910;151.156;2024-03-02T06:03:26;12.02;;;3.08;;
16113;SDS011;8161;-33.910;151.156;2024-03-02T06:05:54;15.45;;;3.17;;
16113;SDS011;8161;-33.910;151.156;2024-03-02T06:08:21;13.43;;;3.10;;
16113;SDS011;8161;-33.910;151.156;2024-03-02T06:10:48;14.45;;;3.33;;
16113;SDS011;8161;-33.910;151.156;2024-03-02T06:13:22;19.40;;;3.07;;
16113;SDS011;8161;-33.910;151.156;2024-03-02T06:15:51;14.52;;;3.20;;
16113;SDS011;8161;-33.910;151.156;2024-03-02T06:18:18;13.27;;;3.03;;
16113;SDS011;8161;-33.910;151.156;2024-03-02T06:20:45;16.08;;;3.28;;
16113;SDS011;8161;-33.910;151.156;2024-03-02T06:23:17;18.17;;;3.53;;
16113;SDS011;8161;-33.910;151.156;2024-03-02T06:25:50;18.23;;;4.13;;
16113;SDS011;8161;-33.910;151.156;2024-03-02T06:28:17;15.15;;;3.65;;
16113;SDS011;8161;-33.910;151.156;2024-03-02T06:30:44;17.73;;;3.35;;
16113;SDS011;8161;-33.910;151.156;2024-03-02T06:33:11;14.18;;;3.22;;
16113;SDS011;8161;-33.910;151.156;2024-03-02T06:35:39;9.75;;;2.70;;
16113;SDS011;8161;-33.910;151.156;2024-03-02T06:38:06;11.40;;;3.08;;
16113;SDS011;8161;-33.910;151.156;2024-03-02T06:40:33;14.02;;;2.85;;
16113;SDS011;8161;-33.910;151.156;2024-03-02T06:43:03;14.45;;;3.58;;
16113;SDS011;8161;-33.910;151.156;2024-03-02T06:45:30;14.10;;;3.53;;
16113;SDS011;8161;-33.910;151.156;2024-03-02T06:47:59;12.27;;;2.60;;
16113;SDS011;8161;-33.910;151.156;2024-03-02T06:50:26;15.43;;;2.92;;
16113;SDS011;8161;-33.910;151.156;2024-03-02T06:52:56;15.23;;;3.30;;
16113;SDS011;8161;-33.910;151.156;2024-03-02T06:55:24;15.43;;;2.90;;
16113;SDS011;8161;-33.910;151.156;2024-03-02T06:57:51;17.08;;;3.60;;
16113;SDS011;8161;-33.910;151.156;2024-03-02T07:00:19;20.15;;;4.30;;
16113;SDS011;8161;-33.910;151.156;2024-03-02T07:02:46;12.40;;;2.97;;
16113;SDS011;8161;-33.910;151.156;2024-03-02T07:05:13;15.23;;;4.30;;
16113;SDS011;8161;-33.910;151.156;2024-03-02T07:07:40;14.07;;;3.45;;
16113;SDS011;8161;-33.910;151.156;2024-03-02T07:10:08;14.18;;;3.38;;
16113;SDS011;8161;-33.910;151.156;2024-03-02T07:12:35;13.10;;;2.90;;
16113;SDS011;8161;-33.910;151.156;2024-03-02T07:15:03;14.33;;;2.97;;
16113;SDS011;8161;-33.910;151.156;2024-03-02T07:17:44;13.18;;;2.63;;
16113;SDS011;8161;-33.910;151.156;2024-03-02T07:20:11;13.93;;;3.38;;
16113;SDS011;8161;-33.910;151.156;2024-03-02T07:22:39;12.90;;;2.70;;
16113;SDS011;8161;-33.910;151.156;2024-03-02T07:25:06;11.30;;;2.30;;
16113;SDS011;8161;-33.910;151.156;2024-03-02T07:27:34;11.13;;;2.10;;
16113;SDS011;8161;-33.910;151.156;2024-03-02T07:30:02;14.00;;;2.70;;
16113;SDS011;8161;-33.910;151.156;2024-03-02T07:32:29;13.93;;;2.95;;
16113;SDS011;8161;-33.910;151.156;2024-03-02T07:34:56;11.38;;;2.45;;
16113;SDS011;8161;-33.910;151.156;2024-03-02T07:37:24;13.95;;;2.95;;
16113;SDS011;8161;-33.910;151.156;2024-03-02T07:39:51;12.95;;;3.00;;
16113;SDS011;8161;-33.910;151.156;2024-03-02T07:42:18;12.50;;;2.80;;
16113;SDS011;8161;-33.910;151.156;2024-03-02T07:44:45;13.40;;;3.95;;
16113;SDS011;8161;-33.910;151.156;2024-03-02T07:47:13;16.33;;;3.05;;
16113;SDS011;8161;-33.910;151.156;2024-03-02T07:49:40;11.47;;;2.57;;
16113;SDS011;8161;-33.910;151.156;2024-03-02T07:52:07;15.18;;;3.45;;
16113;SDS011;8161;-33.910;151.156;2024-03-02T07:54:35;15.45;;;3.28;;
16113;SDS011;8161;-33.910;151.156;2024-03-02T07:57:02;12.83;;;2.90;;
16113;SDS011;8161;-33.910;151.156;2024-03-02T07:59:29;13.73;;;2.33;;
16113;SDS011;8161;-33.910;151.156;2024-03-02T08:01:57;12.05;;;2.78;;
16113;SDS011;8161;-33.910;151.156;2024-03-02T08:04:25;13.93;;;2.40;;
16113;SDS011;8161;-33.910;151.156;2024-03-02T08:06:52;11.32;;;2.50;;
16113;SDS011;8161;-33.910;151.156;2024-03-02T08:09:20;12.10;;;2.70;;
16113;SDS011;8161;-33.910;151.156;2024-03-02T08:11:47;14.20;;;3.67;;
16113;SDS011;8161;-33.910;151.156;2024-03-02T08:14:14;18.02;;;3.85;;
16113;SDS011;8161;-33.910;151.156;2024-03-02T08:16:59;15.10;;;3.85;;
16113;SDS011;8161;-33.910;151.156;2024-03-02T08:19:27;11.57;;;3.38;;
16113;SDS011;8161;-33.910;151.156;2024-03-02T08:21:55;11.87;;;2.90;;
16113;SDS011;8161;-33.910;151.156;2024-03-02T08:24:22;17.30;;;3.47;;
16113;SDS011;8161;-33.910;151.156;2024-03-02T08:26:49;12.65;;;2.88;;
16113;SDS011;8161;-33.910;151.156;2024-03-02T08:29:16;17.20;;;3.50;;
16113;SDS011;8161;-33.910;151.156;2024-03-02T08:31:43;14.52;;;3.17;;
16113;SDS011;8161;-33.910;151.156;2024-03-02T08:34:11;15.88;;;3.38;;
16113;SDS011;8161;-33.910;151.156;2024-03-02T08:36:38;13.57;;;2.78;;
16113;SDS011;8161;-33.910;151.156;2024-03-02T08:39:05;13.57;;;2.70;;
16113;SDS011;8161;-33.910;151.156;2024-03-02T08:41:49;10.47;;;2.90;;
16113;SDS011;8161;-33.910;151.156;2024-03-02T08:44:17;9.55;;;3.00;;
16113;SDS011;8161;-33.910;151.156;2024-03-02T08:46:44;18.08;;;4.05;;
16113;SDS011;8161;-33.910;151.156;2024-03-02T08:49:11;17.98;;;3.33;;
16113;SDS011;8161;-33.910;151.156;2024-03-02T08:51:39;11.82;;;3.00;;
16113;SDS011;8161;-33.910;151.156;2024-03-02T08:54:06;14.18;;;2.72;;
16113;SDS011;8161;-33.910;151.156;2024-03-02T08:56:34;14.52;;;3.15;;
16113;SDS011;8161;-33.910;151.156;2024-03-02T08:59:02;14.73;;;3.13;;
16113;SDS011;8161;-33.910;151.156;2024-03-02T09:01:30;15.68;;;3.67;;
16113;SDS011;8161;-33.910;151.156;2024-03-02T09:03:58;14.02;;;2.65;;
16113;SDS011;8161;-33.910;151.156;2024-03-02T09:06:25;10.88;;;3.03;;
16113;SDS011;8161;-33.910;151.156;2024-03-02T09:08:52;14.07;;;3.20;;
16113;SDS011;8161;-33.910;151.156;2024-03-02T09:11:22;16.58;;;4.57;;
16113;SDS011;8161;-33.910;151.156;2024-03-02T09:13:50;16.73;;;3.92;;
16113;SDS011;8161;-33.910;151.156;2024-03-02T09:16:18;19.17;;;3.90;;
16113;SDS011;8161;-33.910;151.156;2024-03-02T09:18:45;19.52;;;4.20;;
16113;SDS011;8161;-33.910;151.156;2024-03-02T09:21:13;17.63;;;3.85;;
16113;SDS011;8161;-33.910;151.156;2024-03-02T09:23:40;20.08;;;4.47;;
16113;SDS011;8161;-33.910;151.156;2024-03-02T09:26:09;17.45;;;4.03;;
16113;SDS011;8161;-33.910;151.156;2024-03-02T09:28:37;18.08;;;4.13;;
16113;SDS011;8161;-33.910;151.156;2024-03-02T09:31:04;14.93;;;4.10;;
16113;SDS011;8161;-33.910;151.156;2024-03-02T09:33:31;13.97;;;3.30;;
16113;SDS011;8161;-33.910;151.156;2024-03-02T09:35:58;13.40;;;3.47;;
16113;SDS011;8161;-33.910;151.156;2024-03-02T09:38:25;14.15;;;2.97;;
16113;SDS011;8161;-33.910;151.156;2024-03-02T09:40:53;15.20;;;3.30;;
16113;SDS011;8161;-33.910;151.156;2024-03-02T09:43:20;14.85;;;2.97;;
16113;SDS011;8161;-33.910;151.156;2024-03-02T09:45:47;13.27;;;2.90;;
16113;SDS011;8161;-33.910;151.156;2024-03-02T09:48:15;13.75;;;3.50;;
16113;SDS011;8161;-33.910;151.156;2024-03-02T09:50:44;13.45;;;3.17;;
16113;SDS011;8161;-33.910;151.156;2024-03-02T09:53:11;15.83;;;3.77;;
16113;SDS011;8161;-33.910;151.156;2024-03-02T09:55:40;13.13;;;2.67;;
16113;SDS011;8161;-33.910;151.156;2024-03-02T09:58:09;14.63;;;3.13;;
16113;SDS011;8161;-33.910;151.156;2024-03-02T10:00:36;12.27;;;3.20;;
16113;SDS011;8161;-33.910;151.156;2024-03-02T10:03:04;16.52;;;3.33;;
16113;SDS011;8161;-33.910;151.156;2024-03-02T10:05:31;15.07;;;3.35;;
16113;SDS011;8161;-33.910;151.156;2024-03-02T10:08:02;14.50;;;2.72;;
16113;SDS011;8161;-33.910;151.156;2024-03-02T10:10:36;16.60;;;3.35;;
16113;SDS011;8161;-33.910;151.156;2024-03-02T10:13:09;13.90;;;2.77;;
16113;SDS011;8161;-33.910;151.156;2024-03-02T10:15:38;13.73;;;3.10;;
16113;SDS011;8161;-33.910;151.156;2024-03-02T10:18:10;11.40;;;2.50;;
16113;SDS011;8161;-33.910;151.156;2024-03-02T10:20:38;12.57;;;2.63;;
16113;SDS011;8161;-33.910;151.156;2024-03-02T10:23:13;11.37;;;2.20;;
16113;SDS011;8161;-33.910;151.156;2024-03-02T10:25:43;12.45;;;2.35;;
16113;SDS011;8161;-33.910;151.156;2024-03-02T10:28:10;13.50;;;2.43;;
16113;SDS011;8161;-33.910;151.156;2024-03-02T10:30:38;14.68;;;2.75;;
16113;SDS011;8161;-33.910;151.156;2024-03-02T10:33:05;9.90;;;2.58;;
16113;SDS011;8161;-33.910;151.156;2024-03-02T10:35:33;11.02;;;2.72;;
16113;SDS011;8161;-33.910;151.156;2024-03-02T10:38:03;12.63;;;3.00;;
16113;SDS011;8161;-33.910;151.156;2024-03-02T10:40:32;12.27;;;3.00;;
16113;SDS011;8161;-33.910;151.156;2024-03-02T10:43:00;12.90;;;2.78;;
16113;SDS011;8161;-33.910;151.156;2024-03-02T10:45:31;16.52;;;2.85;;
16113;SDS011;8161;-33.910;151.156;2024-03-02T10:47:58;15.93;;;2.60;;
16113;SDS011;8161;-33.910;151.156;2024-03-02T10:50:28;12.48;;;2.78;;
16113;SDS011;8161;-33.910;151.156;2024-03-02T10:52:56;13.68;;;2.80;;
16113;SDS011;8161;-33.910;151.156;2024-03-02T10:55:23;15.60;;;3.35;;
16113;SDS011;8161;-33.910;151.156;2024-03-02T10:57:51;16.60;;;2.80;;
16113;SDS011;8161;-33.910;151.156;2024-03-02T11:00:20;14.70;;;3.22;;
16113;SDS011;8161;-33.910;151.156;2024-03-02T11:03:02;11.57;;;2.53;;
16113;SDS011;8161;-33.910;151.156;2024-03-02T11:05:36;13.77;;;2.30;;
16113;SDS011;8161;-33.910;151.156;2024-03-02T11:08:08;12.60;;;2.30;;
16113;SDS011;8161;-33.910;151.156;2024-03-02T11:10:50;10.70;;;2.33;;
16113;SDS011;8161;-33.910;151.156;2024-03-02T11:13:20;10.15;;;2.25;;
16113;SDS011;8161;-33.910;151.156;2024-03-02T11:15:59;9.75;;;2.35;;
16113;SDS011;8161;-33.910;151.156;2024-03-02T11:18:35;10.02;;;2.30;;
16113;SDS011;8161;-33.910;151.156;2024-03-02T11:21:04;11.03;;;2.40;;
16113;SDS011;8161;-33.910;151.156;2024-03-02T11:23:32;11.80;;;2.53;;
16113;SDS011;8161;-33.910;151.156;2024-03-02T11:28:45;10.77;;;2.05;;
16113;SDS011;8161;-33.910;151.156;2024-03-02T11:31:12;16.38;;;3.15;;
16113;SDS011;8161;-33.910;151.156;2024-03-02T11:33:39;15.27;;;2.92;;
16113;SDS011;8161;-33.910;151.156;2024-03-02T11:36:07;13.85;;;2.40;;
16113;SDS011;8161;-33.910;151.156;2024-03-02T11:38:35;13.27;;;2.65;;
16113;SDS011;8161;-33.910;151.156;2024-03-02T11:41:05;10.30;;;2.20;;
16113;SDS011;8161;-33.910;151.156;2024-03-02T11:43:37;11.75;;;2.78;;
16113;SDS011;8161;-33.910;151.156;2024-03-02T11:46:05;11.38;;;2.60;;
16113;SDS011;8161;-33.910;151.156;2024-03-02T11:48:34;11.80;;;2.40;;
16113;SDS011;8161;-33.910;151.156;2024-03-02T11:51:02;13.48;;;2.70;;
16113;SDS011;8161;-33.910;151.156;2024-03-02T11:53:30;9.82;;;2.00;;
16113;SDS011;8161;-33.910;151.156;2024-03-02T11:56:00;11.65;;;2.45;;
16113;SDS011;8161;-33.910;151.156;2024-03-02T11:58:28;16.63;;;2.42;;
16113;SDS011;8161;-33.910;151.156;2024-03-02T12:00:55;13.80;;;2.53;;
16113;SDS011;8161;-33.910;151.156;2024-03-02T12:03:23;15.50;;;2.80;;
16113;SDS011;8161;-33.910;151.156;2024-03-02T12:05:55;10.70;;;2.05;;
16113;SDS011;8161;-33.910;151.156;2024-03-02T12:08:22;13.90;;;2.40;;
16113;SDS011;8161;-33.910;151.156;2024-03-02T12:11:01;11.70;;;2.40;;
16113;SDS011;8161;-33.910;151.156;2024-03-02T12:13:28;13.02;;;2.20;;
16113;SDS011;8161;-33.910;151.156;2024-03-02T12:15:56;11.50;;;2.40;;
16113;SDS011;8161;-33.910;151.156;2024-03-02T12:18:24;12.27;;;2.90;;
16113;SDS011;8161;-33.910;151.156;2024-03-02T12:20:51;12.90;;;2.63;;
16113;SDS011;8161;-33.910;151.156;2024-03-02T12:23:22;12.68;;;2.08;;
16113;SDS011;8161;-33.910;151.156;2024-03-02T12:25:50;13.38;;;2.60;;
16113;SDS011;8161;-33.910;151.156;2024-03-02T12:28:18;9.20;;;2.10;;
16113;SDS011;8161;-33.910;151.156;2024-03-02T12:30:46;10.75;;;2.47;;
16113;SDS011;8161;-33.910;151.156;2024-03-02T12:33:14;16.20;;;2.70;;
16113;SDS011;8161;-33.910;151.156;2024-03-02T12:35:42;12.73;;;2.72;;
16113;SDS011;8161;-33.910;151.156;2024-03-02T12:38:09;11.95;;;3.00;;
16113;SDS011;8161;-33.910;151.156;2024-03-02T12:40:37;11.20;;;2.17;;
16113;SDS011;8161;-33.910;151.156;2024-03-02T12:43:05;10.93;;;2.60;;
16113;SDS011;8161;-33.910;151.156;2024-03-02T12:45:33;12.10;;;2.75;;
16113;SDS011;8161;-33.910;151.156;2024-03-02T12:48:01;10.38;;;2.45;;
16113;SDS011;8161;-33.910;151.156;2024-03-02T12:50:28;12.82;;;2.72;;
16113;SDS011;8161;-33.910;151.156;2024-03-02T12:52:56;15.13;;;2.50;;
16113;SDS011;8161;-33.910;151.156;2024-03-02T12:55:24;12.38;;;2.33;;
16113;SDS011;8161;-33.910;151.156;2024-03-02T12:57:51;10.10;;;2.42;;
16113;SDS011;8161;-33.910;151.156;2024-03-02T13:00:19;16.85;;;3.22;;
16113;SDS011;8161;-33.910;151.156;2024-03-02T13:02:47;13.03;;;2.30;;
16113;SDS011;8161;-33.910;151.156;2024-03-02T13:05:16;13.57;;;2.38;;
16113;SDS011;8161;-33.910;151.156;2024-03-02T13:07:43;9.93;;;2.50;;
16113;SDS011;8161;-33.910;151.156;2024-03-02T13:10:12;8.13;;;2.10;;
16113;SDS011;8161;-33.910;151.156;2024-03-02T13:12:40;12.82;;;2.10;;
16113;SDS011;8161;-33.910;151.156;2024-03-02T13:15:08;11.73;;;2.50;;
16113;SDS011;8161;-33.910;151.156;2024-03-02T13:17:36;13.38;;;2.95;;
16113;SDS011;8161;-33.910;151.156;2024-03-02T13:20:05;11.85;;;2.30;;
16113;SDS011;8161;-33.910;151.156;2024-03-02T13:22:36;12.82;;;2.80;;
16113;SDS011;8161;-33.910;151.156;2024-03-02T13:25:03;15.10;;;2.55;;
16113;SDS011;8161;-33.910;151.156;2024-03-02T13:27:31;8.25;;;2.08;;
16113;SDS011;8161;-33.910;151.156;2024-03-02T13:29:59;10.88;;;2.72;;
16113;SDS011;8161;-33.910;151.156;2024-03-02T13:32:26;19.75;;;3.40;;
16113;SDS011;8161;-33.910;151.156;2024-03-02T13:34:53;10.90;;;2.50;;
16113;SDS011;8161;-33.910;151.156;2024-03-02T13:37:21;14.67;;;3.17;;
16113;SDS011;8161;-33.910;151.156;2024-03-02T13:39:48;12.50;;;2.78;;
16113;SDS011;8161;-33.910;151.156;2024-03-02T13:42:15;12.38;;;3.05;;
16113;SDS011;8161;-33.910;151.156;2024-03-02T13:44:43;15.83;;;3.30;;
16113;SDS011;8161;-33.910;151.156;2024-03-02T13:47:13;16.85;;;3.40;;
16113;SDS011;8161;-33.910;151.156;2024-03-02T13:49:41;17.73;;;3.20;;
16113;SDS011;8161;-33.910;151.156;2024-03-02T13:52:12;12.38;;;3.15;;
16113;SDS011;8161;-33.910;151.156;2024-03-02T13:54:40;14.23;;;3.15;;
16113;SDS011;8161;-33.910;151.156;2024-03-02T13:57:08;15.98;;;3.28;;
16113;SDS011;8161;-33.910;151.156;2024-03-02T13:59:36;15.27;;;3.75;;
16113;SDS011;8161;-33.910;151.156;2024-03-02T14:02:05;16.42;;;3.55;;
16113;SDS011;8161;-33.910;151.156;2024-03-02T14:04:32;13.40;;;3.50;;
16113;SDS011;8161;-33.910;151.156;2024-03-02T14:07:01;12.57;;;2.97;;
16113;SDS011;8161;-33.910;151.156;2024-03-02T14:09:29;13.30;;;3.03;;
16113;SDS011;8161;-33.910;151.156;2024-03-02T14:11:56;12.52;;;3.00;;
16113;SDS011;8161;-33.910;151.156;2024-03-02T14:14:28;12.90;;;2.90;;
16113;SDS011;8161;-33.910;151.156;2024-03-02T14:16:56;13.60;;;2.42;;
16113;SDS011;8161;-33.910;151.156;2024-03-02T14:19:29;10.43;;;2.50;;
16113;SDS011;8161;-33.910;151.156;2024-03-02T14:21:57;14.15;;;2.75;;